Terminal Aerodrome Forecast
Issued by NWS Mt. Holly, NJ

Current Version | Previous Version | Text Only | Print | Product List | Glossary On
Versions: 1 2 3 4 5 6 7 8 9 10 11 12 13 14 15 16 17 18 19 20 21
135
FTUS41 KPHI 181734
TAFTTN
TAF
KTTN 181734Z 1818/1918 19008KT P6SM BKN009 OVC015
     FM181900 20007KT P6SM SCT015 BKN050
     FM182100 20005KT 3SM SHRA BKN025 OVC050
      TEMPO 1821/1901 28015G30KT 2SM TSRA BKN025CB
     FM190100 VRB04KT P6SM BKN050 BKN090
      TEMPO 1901/1903 3SM SHRA BKN025
     FM190400 VRB02KT 3SM BR BKN015
     FM190600 VRB02KT 1SM BR OVC005
     FM191300 VRB03KT 3SM BR SCT008
     FM191500 28007KT P6SM FEW250=

USA.gov is the U.S. government's official web portal to all federal, state and local government web resources and services.